createdAt,value
2023-05-17T00:00:01.518Z,47.15
2023-05-17T00:02:29.537Z,46.64
2023-05-17T00:04:57.405Z,46.35
2023-05-17T00:07:25.187Z,46.53
2023-05-17T00:09:52.864Z,46.47
2023-05-17T00:12:20.670Z,46.68
2023-05-17T00:14:48.732Z,46.70
2023-05-17T00:17:16.856Z,46.78
2023-05-17T00:19:44.582Z,47.61
2023-05-17T00:22:12.345Z,46.46
2023-05-17T00:24:40.094Z,46.77
2023-05-17T00:27:07.714Z,46.26
2023-05-17T00:29:35.507Z,46.69
2023-05-17T00:32:04.773Z,46.48
2023-05-17T00:34:32.707Z,46.45
2023-05-17T00:37:00.751Z,46.47
2023-05-17T00:39:28.386Z,46.73
2023-05-17T00:41:55.836Z,46.43
2023-05-17T00:44:23.359Z,46.68
2023-05-17T00:46:50.917Z,47.16
2023-05-17T00:49:18.462Z,46.54
2023-05-17T00:51:46.037Z,46.75
2023-05-17T00:54:13.713Z,46.96
2023-05-17T00:56:41.197Z,46.69
2023-05-17T00:59:08.675Z,47.35
2023-05-17T01:01:36.123Z,47.66
2023-05-17T01:04:03.711Z,47.19
2023-05-17T01:06:31.612Z,47.78
2023-05-17T01:09:00.177Z,47.92
2023-05-17T01:11:53.130Z,47.94
2023-05-17T01:14:39.189Z,47.59
2023-05-17T01:17:10.515Z,47.22
2023-05-17T01:19:54.767Z,46.93
2023-05-17T01:22:52.044Z,46.70
2023-05-17T01:25:24.609Z,47.10
2023-05-17T01:27:52.105Z,48.05
2023-05-17T01:30:20.047Z,46.97
2023-05-17T01:32:47.819Z,47.13
2023-05-17T01:35:15.765Z,47.11
2023-05-17T01:37:43.239Z,47.43
2023-05-17T01:40:11.040Z,47.53
2023-05-17T01:42:42.613Z,47.71
2023-05-17T01:45:27.056Z,47.41
2023-05-17T01:48:21.799Z,47.16
2023-05-17T01:50:53.046Z,47.87
2023-05-17T01:53:26.303Z,48.57
2023-05-17T01:55:55.644Z,47.65
2023-05-17T01:58:26.388Z,47.56
2023-05-17T02:00:55.905Z,47.85
2023-05-17T02:03:23.465Z,47.62
2023-05-17T02:05:53.428Z,47.13
2023-05-17T02:08:21.111Z,47.80
2023-05-17T02:10:48.664Z,48.30
2023-05-17T02:13:16.236Z,47.54
2023-05-17T02:15:44.624Z,47.51
2023-05-17T02:18:13.123Z,48.19
2023-05-17T02:20:41.366Z,48.88
2023-05-17T02:23:08.836Z,49.03
2023-05-17T02:25:37.448Z,48.62
2023-05-17T02:28:06.520Z,48.56
2023-05-17T02:30:35.990Z,48.33
2023-05-17T02:33:03.461Z,48.63
2023-05-17T02:35:31.161Z,48.84
2023-05-17T02:37:59.120Z,48.71
2023-05-17T02:40:26.587Z,48.39
2023-05-17T02:42:54.606Z,49.12
2023-05-17T02:45:21.978Z,49.78
2023-05-17T02:47:49.720Z,49.14
2023-05-17T02:50:17.527Z,49.08
2023-05-17T02:52:45.162Z,49.13
2023-05-17T02:55:12.624Z,48.80
2023-05-17T02:57:40.099Z,49.17
2023-05-17T03:00:09.034Z,48.85
2023-05-17T03:02:36.870Z,49.98
2023-05-17T03:05:08.599Z,49.71
2023-05-17T03:07:38.859Z,51.10
2023-05-17T03:10:07.512Z,51.52
2023-05-17T03:12:40.981Z,51.04
2023-05-17T03:15:09.382Z,50.92
2023-05-17T03:17:37.743Z,52.39
2023-05-17T03:20:07.900Z,52.50
2023-05-17T03:22:37.071Z,51.45
2023-05-17T03:25:05.929Z,51.38
2023-05-17T03:27:34.391Z,50.95
2023-05-17T03:30:02.224Z,51.62
2023-05-17T03:32:31.678Z,50.20
2023-05-17T03:34:59.454Z,50.56
2023-05-17T03:37:28.026Z,50.95
2023-05-17T03:39:56.083Z,51.20
2023-05-17T03:42:23.789Z,50.44
2023-05-17T03:44:52.429Z,51.07
2023-05-17T03:47:24.003Z,50.77
2023-05-17T03:49:52.204Z,50.37
2023-05-17T03:52:20.371Z,50.74
2023-05-17T03:54:49.339Z,50.78
2023-05-17T03:57:17.400Z,50.47
2023-05-17T03:59:46.035Z,49.25
2023-05-17T04:02:16.849Z,49.59
2023-05-17T04:04:51.221Z,49.49
2023-05-17T04:07:19.590Z,49.45
2023-05-17T04:09:47.689Z,50.26
2023-05-17T04:12:15.341Z,50.01
2023-05-17T04:14:43.114Z,50.85
2023-05-17T04:17:10.801Z,49.99
2023-05-17T04:19:38.581Z,51.49
2023-05-17T04:22:06.220Z,50.70
2023-05-17T04:24:34.550Z,50.27
2023-05-17T04:27:04.892Z,50.06
2023-05-17T04:29:32.808Z,49.26
2023-05-17T04:32:00.677Z,50.65
2023-05-17T04:34:28.348Z,49.79
2023-05-17T04:36:57.542Z,49.59
2023-05-17T04:39:26.134Z,49.43
2023-05-17T04:41:53.772Z,50.00
2023-05-17T04:44:21.689Z,50.61
2023-05-17T04:46:53.300Z,50.26
2023-05-17T04:49:20.843Z,50.27
2023-05-17T04:51:48.548Z,49.43
2023-05-17T04:54:16.370Z,49.35
2023-05-17T04:56:44.254Z,48.96
2023-05-17T04:59:16.528Z,48.74
2023-05-17T05:01:44.186Z,49.01
2023-05-17T05:04:11.854Z,48.41
2023-05-17T05:06:43.128Z,48.91
2023-05-17T05:09:11.067Z,48.71
2023-05-17T05:11:39.794Z,48.06
2023-05-17T05:14:07.742Z,47.98
2023-05-17T05:16:36.621Z,48.09
2023-05-17T05:19:04.472Z,48.20
2023-05-17T05:21:32.994Z,48.29
2023-05-17T05:24:01.083Z,47.55
2023-05-17T05:26:28.882Z,47.98
2023-05-17T05:29:01.118Z,46.69
2023-05-17T05:31:30.878Z,45.86
2023-05-17T05:34:01.303Z,45.80
2023-05-17T05:36:29.740Z,46.05
2023-05-17T05:38:57.649Z,45.65
2023-05-17T05:41:25.428Z,46.23
2023-05-17T05:43:53.052Z,45.86
2023-05-17T05:46:21.374Z,45.99
2023-05-17T05:48:50.150Z,44.85
2023-05-17T05:51:22.724Z,44.62
2023-05-17T05:53:51.946Z,45.54
2023-05-17T05:56:20.597Z,45.05
2023-05-17T05:58:48.175Z,45.20
2023-05-17T06:01:16.482Z,44.75
2023-05-17T06:03:43.935Z,45.22
2023-05-17T06:06:11.575Z,44.64
2023-05-17T06:08:39.487Z,44.12
2023-05-17T06:11:07.313Z,44.18
2023-05-17T06:13:36.679Z,43.64
2023-05-17T06:16:06.066Z,44.42
2023-05-17T06:18:33.841Z,44.32
2023-05-17T06:21:01.462Z,43.55
2023-05-17T06:23:29.333Z,43.17
2023-05-17T06:25:56.932Z,43.05
2023-05-17T06:28:24.532Z,43.18
2023-05-17T06:30:52.178Z,41.50
2023-05-17T06:33:19.821Z,41.68
2023-05-17T06:35:55.549Z,41.62
2023-05-17T06:38:23.740Z,41.33
2023-05-17T06:40:54.782Z,41.62
2023-05-17T06:43:22.657Z,42.07
2023-05-17T06:45:50.560Z,41.83
2023-05-17T06:48:18.307Z,40.58
2023-05-17T06:50:46.069Z,41.06
2023-05-17T06:53:13.882Z,39.59
2023-05-17T06:55:43.345Z,39.20
2023-05-17T06:58:11.094Z,39.68
2023-05-17T07:00:38.982Z,37.84
2023-05-17T07:03:25.461Z,36.36
2023-05-17T07:05:53.068Z,35.77
2023-05-17T07:08:21.168Z,36.95
2023-05-17T07:10:52.184Z,36.81
2023-05-17T07:13:19.988Z,36.59
2023-05-17T07:15:50.435Z,37.20
2023-05-17T07:18:18.256Z,37.78
2023-05-17T07:20:46.549Z,35.99
2023-05-17T07:23:14.160Z,36.98
2023-05-17T07:25:43.220Z,35.39
2023-05-17T07:28:11.289Z,36.17
2023-05-17T07:30:38.810Z,37.11
2023-05-17T07:33:09.762Z,36.28
2023-05-17T07:35:37.884Z,36.54
2023-05-17T07:38:05.632Z,35.01
2023-05-17T07:40:33.410Z,35.15
2023-05-17T07:43:01.157Z,35.64
2023-05-17T07:45:28.994Z,36.58
2023-05-17T07:47:57.219Z,35.96
2023-05-17T07:50:24.990Z,36.34
2023-05-17T07:52:52.774Z,35.32
2023-05-17T07:55:21.446Z,36.37
2023-05-17T07:57:48.850Z,34.64
2023-05-17T08:00:19.628Z,34.89
2023-05-17T08:02:47.343Z,35.76
2023-05-17T08:05:14.853Z,35.66
2023-05-17T08:07:42.538Z,35.12
2023-05-17T08:10:10.756Z,36.10
2023-05-17T08:12:38.662Z,35.72
2023-05-17T08:15:06.688Z,34.77
2023-05-17T08:17:34.452Z,35.15
2023-05-17T08:20:02.186Z,35.08
2023-05-17T08:22:30.029Z,34.58
2023-05-17T08:24:57.721Z,35.38
2023-05-17T08:27:26.993Z,33.70
2023-05-17T08:29:58.441Z,33.94
2023-05-17T08:32:26.485Z,35.07
2023-05-17T08:34:54.657Z,35.20
2023-05-17T08:37:22.250Z,33.94
2023-05-17T08:39:51.521Z,35.19
2023-05-17T08:42:22.517Z,35.45
2023-05-17T08:44:50.552Z,35.46
2023-05-17T08:47:29.835Z,34.27
2023-05-17T08:50:00.509Z,33.41
2023-05-17T08:52:34.707Z,34.03
2023-05-17T08:55:05.331Z,32.69
2023-05-17T08:57:33.884Z,31.66
2023-05-17T09:00:01.771Z,31.55
2023-05-17T09:02:30.210Z,32.12
2023-05-17T09:04:58.175Z,32.52
2023-05-17T09:07:25.888Z,31.88
2023-05-17T09:09:54.211Z,32.65
2023-05-17T09:12:23.531Z,32.49
2023-05-17T09:14:52.987Z,32.82
2023-05-17T09:17:21.575Z,33.04
2023-05-17T09:19:50.450Z,31.37
2023-05-17T09:22:18.387Z,33.18
2023-05-17T09:24:46.908Z,32.55
2023-05-17T09:27:18.263Z,32.48
2023-05-17T09:29:46.433Z,31.33
2023-05-17T09:32:17.988Z,31.80
2023-05-17T09:34:47.075Z,33.95
2023-05-17T09:37:16.088Z,32.82
2023-05-17T09:39:47.067Z,33.88
2023-05-17T09:42:15.252Z,33.21
2023-05-17T09:44:50.088Z,32.10
2023-05-17T09:47:24.934Z,34.07
2023-05-17T09:49:52.718Z,30.50
2023-05-17T09:52:20.971Z,32.09
2023-05-17T09:54:55.394Z,32.70
2023-05-17T09:57:23.108Z,33.21
2023-05-17T09:59:50.843Z,31.59
2023-05-17T10:02:23.446Z,30.85
2023-05-17T10:04:51.633Z,31.07
2023-05-17T10:07:19.910Z,30.83
2023-05-17T10:09:48.908Z,30.98
2023-05-17T10:12:23.717Z,33.07
2023-05-17T10:14:52.969Z,32.70
2023-05-17T10:17:20.810Z,33.34
2023-05-17T10:19:48.851Z,33.46
2023-05-17T10:22:23.283Z,32.18
2023-05-17T10:24:51.876Z,32.42
2023-05-17T10:27:19.962Z,31.38
2023-05-17T10:29:50.252Z,32.78
2023-05-17T10:32:19.598Z,32.67
2023-05-17T10:35:01.525Z,32.65
2023-05-17T10:37:34.354Z,31.89
2023-05-17T10:40:02.113Z,32.63
2023-05-17T10:42:29.770Z,32.02
2023-05-17T10:44:57.404Z,33.23
2023-05-17T10:47:32.134Z,31.24
2023-05-17T10:49:59.724Z,32.43
2023-05-17T10:52:27.564Z,32.74
2023-05-17T10:54:56.518Z,33.61
2023-05-17T10:57:49.849Z,32.40
2023-05-17T11:00:22.025Z,32.27
2023-05-17T11:02:50.894Z,32.50
2023-05-17T11:05:26.162Z,32.93
2023-05-17T11:08:17.361Z,32.02
2023-05-17T11:11:07.676Z,32.32
2023-05-17T11:13:47.583Z,33.05
2023-05-17T11:16:18.094Z,31.60
2023-05-17T11:18:53.317Z,31.48
2023-05-17T11:21:22.552Z,30.97
2023-05-17T11:23:55.464Z,32.02
2023-05-17T11:26:33.192Z,32.32
2023-05-17T11:29:08.290Z,33.22
2023-05-17T11:31:36.822Z,31.10
2023-05-17T11:34:04.677Z,32.29
2023-05-17T11:36:32.448Z,31.85
2023-05-17T11:39:10.803Z,31.75
2023-05-17T11:41:41.668Z,31.92
2023-05-17T11:44:10.186Z,30.36
2023-05-17T11:46:38.018Z,32.26
2023-05-17T11:49:12.119Z,31.91
2023-05-17T11:51:43.283Z,31.31
2023-05-17T11:54:10.893Z,31.99
2023-05-17T11:56:43.675Z,31.64
2023-05-17T11:59:11.790Z,32.12
2023-05-17T12:01:43.779Z,31.31
2023-05-17T12:04:11.490Z,31.58
2023-05-17T12:06:39.636Z,30.53
2023-05-17T12:09:11.379Z,30.23
2023-05-17T12:11:39.659Z,30.00
2023-05-17T12:14:07.393Z,31.30
2023-05-17T12:16:36.363Z,30.91
2023-05-17T12:19:04.197Z,30.00
2023-05-17T12:21:31.961Z,31.63
2023-05-17T12:23:59.582Z,30.56
2023-05-17T12:26:27.171Z,31.13
2023-05-17T12:28:56.554Z,30.50
2023-05-17T12:31:38.639Z,29.94
2023-05-17T12:34:06.756Z,31.28
2023-05-17T12:36:34.966Z,30.04
2023-05-17T12:39:02.658Z,29.08
2023-05-17T12:41:30.329Z,29.38
2023-05-17T12:44:13.760Z,30.49
2023-05-17T12:46:42.987Z,30.26
2023-05-17T12:49:13.931Z,30.87
2023-05-17T12:51:43.441Z,30.38
2023-05-17T12:54:31.329Z,29.02
2023-05-17T12:56:59.147Z,30.97
2023-05-17T12:59:29.183Z,30.12
2023-05-17T13:01:57.641Z,30.83
2023-05-17T13:04:32.831Z,30.14
2023-05-17T13:07:02.443Z,29.84
2023-05-17T13:09:31.138Z,31.16
2023-05-17T13:11:59.622Z,31.48
2023-05-17T13:14:44.389Z,29.92
2023-05-17T13:17:18.499Z,31.04
2023-05-17T13:19:46.300Z,30.92
2023-05-17T13:22:15.522Z,30.54
2023-05-17T13:24:43.568Z,30.26
2023-05-17T13:27:11.298Z,29.28
2023-05-17T13:29:41.805Z,29.97
2023-05-17T13:32:11.733Z,30.70
2023-05-17T13:34:39.541Z,30.55
2023-05-17T13:37:10.303Z,30.28
2023-05-17T13:39:39.989Z,30.25
2023-05-17T13:42:07.974Z,31.07
2023-05-17T13:44:36.409Z,30.61
2023-05-17T13:47:04.288Z,29.46
2023-05-17T13:49:32.887Z,30.60
2023-05-17T13:52:00.905Z,30.73
2023-05-17T13:54:28.541Z,29.93
2023-05-17T13:56:57.624Z,29.26
2023-05-17T13:59:25.493Z,29.24
2023-05-17T14:01:53.845Z,29.41
2023-05-17T14:04:21.598Z,28.94
2023-05-17T14:06:50.286Z,29.84
2023-05-17T14:09:19.078Z,30.30
2023-05-17T14:11:46.684Z,29.73
2023-05-17T14:14:14.239Z,30.23
2023-05-17T14:16:41.929Z,30.49
2023-05-17T14:19:09.732Z,30.56
2023-05-17T14:21:37.826Z,30.32
2023-05-17T14:24:05.641Z,31.10
2023-05-17T14:26:33.240Z,30.84
2023-05-17T14:29:01.077Z,30.21
2023-05-17T14:31:30.301Z,30.68
2023-05-17T14:33:58.982Z,30.39
2023-05-17T14:36:26.639Z,30.16
2023-05-17T14:38:54.325Z,31.36
2023-05-17T14:41:22.652Z,31.48
2023-05-17T14:43:50.219Z,30.67
2023-05-17T14:46:19.932Z,30.82
2023-05-17T14:48:47.594Z,31.60
2023-05-17T14:51:15.137Z,31.68
2023-05-17T14:53:43.128Z,31.23
2023-05-17T14:56:12.159Z,32.41
2023-05-17T14:58:40.521Z,32.64
2023-05-17T15:01:08.390Z,32.42
2023-05-17T15:03:36.178Z,32.42
2023-05-17T15:06:07.084Z,32.41
2023-05-17T15:08:36.070Z,32.10
2023-05-17T15:11:03.613Z,31.33
2023-05-17T15:13:31.574Z,32.06
2023-05-17T15:15:59.484Z,32.00
2023-05-17T15:18:27.128Z,31.74
2023-05-17T15:20:54.593Z,31.57
2023-05-17T15:23:22.128Z,31.99
2023-05-17T15:25:49.901Z,32.05
2023-05-17T15:28:20.000Z,31.20
2023-05-17T15:30:47.898Z,30.20
2023-05-17T15:33:15.931Z,29.88
2023-05-17T15:35:44.619Z,29.48
2023-05-17T15:38:12.210Z,30.96
2023-05-17T15:40:39.850Z,30.20
2023-05-17T15:43:07.358Z,31.75
2023-05-17T15:45:35.015Z,31.14
2023-05-17T15:48:02.677Z,31.01
2023-05-17T15:50:31.132Z,31.29
2023-05-17T15:53:00.163Z,31.16
2023-05-17T15:55:28.910Z,31.01
2023-05-17T15:57:56.689Z,31.66
2023-05-17T16:00:24.294Z,31.74
2023-05-17T16:02:52.074Z,32.21
2023-05-17T16:05:19.760Z,31.53
2023-05-17T16:07:48.175Z,31.93
2023-05-17T16:10:16.173Z,31.69
2023-05-17T16:12:44.086Z,32.26
2023-05-17T16:15:11.742Z,32.21
2023-05-17T16:17:39.569Z,32.20
2023-05-17T16:20:08.164Z,32.53
2023-05-17T16:22:36.069Z,32.96
2023-05-17T16:25:04.959Z,32.36
2023-05-17T16:27:32.670Z,33.12
2023-05-17T16:30:00.220Z,33.29
2023-05-17T16:32:27.912Z,33.24
2023-05-17T16:34:55.585Z,33.19
2023-05-17T16:37:23.176Z,32.92
2023-05-17T16:39:50.746Z,33.02
2023-05-17T16:42:18.833Z,33.09
2023-05-17T16:44:46.418Z,32.97
2023-05-17T16:47:14.079Z,33.37
2023-05-17T16:49:42.550Z,33.82
2023-05-17T16:52:10.327Z,33.84
2023-05-17T16:54:38.763Z,34.32
2023-05-17T16:57:08.450Z,34.47
2023-05-17T16:59:36.289Z,34.80
2023-05-17T17:02:04.479Z,34.42
2023-05-17T17:04:32.238Z,34.89
2023-05-17T17:07:00.313Z,34.86
2023-05-17T17:09:27.952Z,34.19
2023-05-17T17:11:55.582Z,35.01
2023-05-17T17:14:24.349Z,35.06
2023-05-17T17:16:52.006Z,34.54
2023-05-17T17:19:19.871Z,35.09
2023-05-17T17:21:47.620Z,35.35
2023-05-17T17:24:15.407Z,35.48
2023-05-17T17:26:43.106Z,35.83
2023-05-17T17:29:10.665Z,35.76
2023-05-17T17:31:38.307Z,35.87
2023-05-17T17:34:06.046Z,35.58
2023-05-17T17:36:33.647Z,36.07
2023-05-17T17:39:01.223Z,35.82
2023-05-17T17:41:29.022Z,36.08
2023-05-17T17:43:58.674Z,36.85
2023-05-17T17:46:26.413Z,37.16
2023-05-17T17:48:56.599Z,37.39
2023-05-17T17:51:24.469Z,37.47
2023-05-17T17:53:53.820Z,37.46
2023-05-17T17:56:21.604Z,37.59
2023-05-17T17:58:49.166Z,37.57
2023-05-17T18:01:16.788Z,37.99
2023-05-17T18:03:44.387Z,38.12
2023-05-17T18:06:12.074Z,38.51
2023-05-17T18:08:39.888Z,38.57
2023-05-17T18:11:07.515Z,38.88
2023-05-17T18:13:35.233Z,39.22
2023-05-17T18:16:02.927Z,39.22
2023-05-17T18:18:30.637Z,38.29
2023-05-17T18:20:58.660Z,39.09
2023-05-17T18:23:26.361Z,38.85
2023-05-17T18:25:53.997Z,38.76
2023-05-17T18:28:30.095Z,39.03
2023-05-17T18:31:05.947Z,39.04
2023-05-17T18:33:34.976Z,38.76
2023-05-17T18:36:02.612Z,38.64
2023-05-17T18:38:30.422Z,38.45
2023-05-17T18:40:57.971Z,38.50
2023-05-17T18:43:25.731Z,38.63
2023-05-17T18:45:53.329Z,38.45
2023-05-17T18:48:22.311Z,38.49
2023-05-17T18:50:49.883Z,39.09
2023-05-17T18:53:18.084Z,39.13
2023-05-17T18:55:45.882Z,39.34
2023-05-17T18:58:14.093Z,39.64
2023-05-17T19:00:42.240Z,39.49
2023-05-17T19:03:09.827Z,39.02
2023-05-17T19:05:38.013Z,39.07
2023-05-17T19:08:05.845Z,39.33
2023-05-17T19:10:33.459Z,39.98
2023-05-17T19:13:01.264Z,40.17
2023-05-17T19:15:29.162Z,40.59
2023-05-17T19:17:56.936Z,40.28
2023-05-17T19:20:24.765Z,41.17
2023-05-17T19:22:52.384Z,41.51
2023-05-17T19:25:21.800Z,40.95
2023-05-17T19:27:49.373Z,40.89
2023-05-17T19:30:17.191Z,41.15
2023-05-17T19:32:45.488Z,41.33
2023-05-17T19:35:13.056Z,41.58
2023-05-17T19:37:40.706Z,41.73
2023-05-17T19:40:09.014Z,41.61
2023-05-17T19:42:36.763Z,42.09
2023-05-17T19:45:04.644Z,42.78
2023-05-17T19:47:32.815Z,42.92
2023-05-17T19:50:01.477Z,42.94
2023-05-17T19:52:29.225Z,42.95
2023-05-17T19:54:56.916Z,43.10
2023-05-17T19:57:24.743Z,43.49
2023-05-17T19:59:53.006Z,43.93
2023-05-17T20:02:21.078Z,44.17
2023-05-17T20:04:48.782Z,43.96
2023-05-17T20:07:17.502Z,44.03
2023-05-17T20:09:45.063Z,44.25
2023-05-17T20:12:13.145Z,44.34
2023-05-17T20:14:40.748Z,44.52
2023-05-17T20:17:08.385Z,44.83
2023-05-17T20:19:38.318Z,45.09
2023-05-17T20:22:06.306Z,45.26
2023-05-17T20:24:35.033Z,45.59
2023-05-17T20:27:02.782Z,45.76
2023-05-17T20:29:31.033Z,46.51
2023-05-17T20:31:58.868Z,46.41
2023-05-17T20:34:29.222Z,46.75
2023-05-17T20:36:56.905Z,47.46
2023-05-17T20:39:28.047Z,47.69
2023-05-17T20:41:56.961Z,47.96
2023-05-17T20:44:26.007Z,48.37
2023-05-17T20:46:54.566Z,48.64
2023-05-17T20:49:22.103Z,48.79
2023-05-17T20:51:49.671Z,49.07
2023-05-17T20:54:17.095Z,49.21
2023-05-17T20:56:44.651Z,49.38
2023-05-17T20:59:12.004Z,49.79
2023-05-17T21:01:39.841Z,49.62
2023-05-17T21:04:07.283Z,50.01
2023-05-17T21:06:36.426Z,50.25
2023-05-17T21:09:04.009Z,50.47
2023-05-17T21:11:31.468Z,50.38
2023-05-17T21:13:59.903Z,50.74
2023-05-17T21:16:27.462Z,51.12
2023-05-17T21:18:55.260Z,51.12
2023-05-17T21:21:22.725Z,51.44
2023-05-17T21:23:51.201Z,51.47
2023-05-17T21:26:18.723Z,51.84
2023-05-17T21:28:46.218Z,52.11
2023-05-17T21:31:13.787Z,52.46
2023-05-17T21:33:41.270Z,52.55
2023-05-17T21:36:08.710Z,52.55
2023-05-17T21:38:36.142Z,52.75
2023-05-17T21:41:03.570Z,53.06
2023-05-17T21:43:31.568Z,53.43
2023-05-17T21:45:58.972Z,53.44
2023-05-17T21:48:26.466Z,53.63
2023-05-17T21:50:53.916Z,53.84
2023-05-17T21:53:21.618Z,54.06
2023-05-17T21:56:01.291Z,54.21
2023-05-17T21:58:31.458Z,54.55
2023-05-17T22:00:58.882Z,54.88
2023-05-17T22:03:26.370Z,55.13
2023-05-17T22:05:53.830Z,55.39
2023-05-17T22:08:21.333Z,55.25
2023-05-17T22:10:50.246Z,55.68
2023-05-17T22:13:18.489Z,55.78
2023-05-17T22:15:46.153Z,56.13
2023-05-17T22:18:13.911Z,56.42
2023-05-17T22:20:41.439Z,56.39
2023-05-17T22:23:08.931Z,56.58
2023-05-17T22:25:36.486Z,56.51
2023-05-17T22:28:03.986Z,56.32
2023-05-17T22:30:31.721Z,56.59
2023-05-17T22:33:01.046Z,56.43
2023-05-17T22:35:29.041Z,56.73
2023-05-17T22:37:56.517Z,56.33
2023-05-17T22:40:24.015Z,56.45
2023-05-17T22:42:52.042Z,56.62
2023-05-17T22:45:19.545Z,56.70
2023-05-17T22:47:47.049Z,56.56
2023-05-17T22:50:15.935Z,56.94
2023-05-17T22:52:43.582Z,56.66
2023-05-17T22:55:11.329Z,57.09
2023-05-17T22:57:38.878Z,57.17
2023-05-17T23:00:09.134Z,56.80
2023-05-17T23:02:36.903Z,57.17
2023-05-17T23:05:04.779Z,56.73
2023-05-17T23:07:37.166Z,56.73
2023-05-17T23:10:08.905Z,56.86
2023-05-17T23:12:37.901Z,56.70
2023-05-17T23:15:06.226Z,56.80
2023-05-17T23:17:33.880Z,56.59
2023-05-17T23:20:10.492Z,56.43
2023-05-17T23:22:38.989Z,56.50
2023-05-17T23:25:06.793Z,56.54
2023-05-17T23:27:35.395Z,56.77
2023-05-17T23:30:03.101Z,56.47
2023-05-17T23:32:34.983Z,56.20
2023-05-17T23:35:05.880Z,56.13
2023-05-17T23:37:33.746Z,55.94
2023-05-17T23:40:01.866Z,56.09
2023-05-17T23:42:29.606Z,56.42
2023-05-17T23:44:57.908Z,56.42
2023-05-17T23:47:25.852Z,56.43
2023-05-17T23:49:53.304Z,56.41
2023-05-17T23:52:20.995Z,56.94
2023-05-17T23:54:48.561Z,57.10
2023-05-17T23:57:16.411Z,57.02
2023-05-17T23:59:44.030Z,57.23
